sensor_id;sensor_type;location;lat;lon;timestamp;temperature;humidity
51613;DHT22;37694;51.748;14.326;2023-07-09T00:02:15;23.60;41.20
51613;DHT22;37694;51.748;14.326;2023-07-09T00:04:42;23.60;41.20
51613;DHT22;37694;51.748;14.326;2023-07-09T00:07:30;23.60;41.20
51613;DHT22;37694;51.748;14.326;2023-07-09T00:09:56;23.60;41.10
51613;DHT22;37694;51.748;14.326;2023-07-09T00:12:22;23.60;41.10
51613;DHT22;37694;51.748;14.326;2023-07-09T00:14:48;23.60;41.00
51613;DHT22;37694;51.748;14.326;2023-07-09T00:17:31;23.60;41.00
51613;DHT22;37694;51.748;14.326;2023-07-09T00:19:59;23.60;40.90
51613;DHT22;37694;51.748;14.326;2023-07-09T00:22:25;23.60;41.00
51613;DHT22;37694;51.748;14.326;2023-07-09T00:24:52;23.60;41.00
51613;DHT22;37694;51.748;14.326;2023-07-09T00:27:24;23.60;40.90
51613;DHT22;37694;51.748;14.326;2023-07-09T00:29:51;23.60;40.90
51613;DHT22;37694;51.748;14.326;2023-07-09T00:32:20;23.60;41.00
51613;DHT22;37694;51.748;14.326;2023-07-09T00:34:51;23.60;40.90
51613;DHT22;37694;51.748;14.326;2023-07-09T00:37:20;23.60;40.90
51613;DHT22;37694;51.748;14.326;2023-07-09T00:39:47;23.50;40.90
51613;DHT22;37694;51.748;14.326;2023-07-09T00:42:15;23.50;40.80
51613;DHT22;37694;51.748;14.326;2023-07-09T00:44:44;23.50;40.90
51613;DHT22;37694;51.748;14.326;2023-07-09T00:50:10;23.50;40.80
51613;DHT22;37694;51.748;14.326;2023-07-09T00:52:47;23.50;41.10
51613;DHT22;37694;51.748;14.326;2023-07-09T00:55:19;23.50;40.90
51613;DHT22;37694;51.748;14.326;2023-07-09T00:57:47;23.40;41.00
51613;DHT22;37694;51.748;14.326;2023-07-09T01:00:22;23.40;40.90
51613;DHT22;37694;51.748;14.326;2023-07-09T01:02:50;23.40;40.80
51613;DHT22;37694;51.748;14.326;2023-07-09T01:05:16;23.40;40.80
51613;DHT22;37694;51.748;14.326;2023-07-09T01:07:45;23.40;40.90
51613;DHT22;37694;51.748;14.326;2023-07-09T01:10:15;23.40;40.90
51613;DHT22;37694;51.748;14.326;2023-07-09T01:12:41;23.40;40.80
51613;DHT22;37694;51.748;14.326;2023-07-09T01:15:08;23.40;41.70
51613;DHT22;37694;51.748;14.326;2023-07-09T01:17:34;23.40;40.80
51613;DHT22;37694;51.748;14.326;2023-07-09T01:19:59;23.50;40.80
51613;DHT22;37694;51.748;14.326;2023-07-09T01:22:25;23.40;40.90
51613;DHT22;37694;51.748;14.326;2023-07-09T01:24:57;23.40;40.80
51613;DHT22;37694;51.748;14.326;2023-07-09T01:27:44;23.40;40.80
51613;DHT22;37694;51.748;14.326;2023-07-09T01:30:32;23.40;40.80
51613;DHT22;37694;51.748;14.326;2023-07-09T01:33:00;23.40;40.70
51613;DHT22;37694;51.748;14.326;2023-07-09T01:35:28;23.30;40.70
51613;DHT22;37694;51.748;14.326;2023-07-09T01:37:54;23.40;40.80
51613;DHT22;37694;51.748;14.326;2023-07-09T01:40:23;23.40;40.90
51613;DHT22;37694;51.748;14.326;2023-07-09T01:42:50;23.40;40.80
51613;DHT22;37694;51.748;14.326;2023-07-09T01:45:16;23.30;40.80
51613;DHT22;37694;51.748;14.326;2023-07-09T01:47:42;23.30;41.60
51613;DHT22;37694;51.748;14.326;2023-07-09T01:50:09;23.30;40.80
51613;DHT22;37694;51.748;14.326;2023-07-09T01:52:37;23.30;40.90
51613;DHT22;37694;51.748;14.326;2023-07-09T01:55:03;23.30;40.80
51613;DHT22;37694;51.748;14.326;2023-07-09T01:57:30;23.30;41.60
51613;DHT22;37694;51.748;14.326;2023-07-09T02:00:17;23.30;40.80
51613;DHT22;37694;51.748;14.326;2023-07-09T02:02:44;23.30;40.90
51613;DHT22;37694;51.748;14.326;2023-07-09T02:05:19;23.30;41.00
51613;DHT22;37694;51.748;14.326;2023-07-09T02:07:45;23.30;41.40
51613;DHT22;37694;51.748;14.326;2023-07-09T02:10:12;23.30;42.60
51613;DHT22;37694;51.748;14.326;2023-07-09T02:12:38;23.30;42.00
51613;DHT22;37694;51.748;14.326;2023-07-09T02:15:05;23.30;42.00
51613;DHT22;37694;51.748;14.326;2023-07-09T02:17:31;23.30;42.00
51613;DHT22;37694;51.748;14.326;2023-07-09T02:19:57;23.30;42.10
51613;DHT22;37694;51.748;14.326;2023-07-09T02:22:22;23.30;42.10
51613;DHT22;37694;51.748;14.326;2023-07-09T02:24:48;23.30;42.10
51613;DHT22;37694;51.748;14.326;2023-07-09T02:27:16;23.20;42.00
51613;DHT22;37694;51.748;14.326;2023-07-09T02:29:42;23.20;42.00
51613;DHT22;37694;51.748;14.326;2023-07-09T02:32:08;23.20;42.10
51613;DHT22;37694;51.748;14.326;2023-07-09T02:34:34;23.20;42.10
51613;DHT22;37694;51.748;14.326;2023-07-09T02:37:01;23.20;42.20
51613;DHT22;37694;51.748;14.326;2023-07-09T02:39:26;23.20;42.20
51613;DHT22;37694;51.748;14.326;2023-07-09T02:41:52;23.20;42.20
51613;DHT22;37694;51.748;14.326;2023-07-09T02:44:18;23.20;42.10
51613;DHT22;37694;51.748;14.326;2023-07-09T02:46:45;23.20;42.00
51613;DHT22;37694;51.748;14.326;2023-07-09T02:49:13;23.20;42.10
51613;DHT22;37694;51.748;14.326;2023-07-09T02:51:39;23.20;42.00
51613;DHT22;37694;51.748;14.326;2023-07-09T02:54:06;23.20;42.10
51613;DHT22;37694;51.748;14.326;2023-07-09T02:56:32;23.20;42.10
51613;DHT22;37694;51.748;14.326;2023-07-09T02:58:58;23.20;42.10
51613;DHT22;37694;51.748;14.326;2023-07-09T03:01:24;23.20;42.10
51613;DHT22;37694;51.748;14.326;2023-07-09T03:03:57;23.10;42.10
51613;DHT22;37694;51.748;14.326;2023-07-09T03:06:25;23.20;42.10
51613;DHT22;37694;51.748;14.326;2023-07-09T03:08:51;23.10;42.00
51613;DHT22;37694;51.748;14.326;2023-07-09T03:11:19;23.10;42.10
51613;DHT22;37694;51.748;14.326;2023-07-09T03:13:45;23.10;42.10
51613;DHT22;37694;51.748;14.326;2023-07-09T03:16:11;23.10;42.10
51613;DHT22;37694;51.748;14.326;2023-07-09T03:18:37;23.10;42.10
51613;DHT22;37694;51.748;14.326;2023-07-09T03:21:03;23.10;42.10
51613;DHT22;37694;51.748;14.326;2023-07-09T03:23:28;23.10;42.00
51613;DHT22;37694;51.748;14.326;2023-07-09T03:25:55;23.10;42.00
51613;DHT22;37694;51.748;14.326;2023-07-09T03:28:21;23.10;42.00
51613;DHT22;37694;51.748;14.326;2023-07-09T03:30:48;23.10;42.00
51613;DHT22;37694;51.748;14.326;2023-07-09T03:33:15;23.10;42.00
51613;DHT22;37694;51.748;14.326;2023-07-09T03:35:42;23.10;42.10
51613;DHT22;37694;51.748;14.326;2023-07-09T03:38:09;23.10;42.10
51613;DHT22;37694;51.748;14.326;2023-07-09T03:40:37;23.10;42.20
51613;DHT22;37694;51.748;14.326;2023-07-09T03:43:06;23.10;42.10
51613;DHT22;37694;51.748;14.326;2023-07-09T03:45:34;23.10;42.10
51613;DHT22;37694;51.748;14.326;2023-07-09T03:48:00;23.10;42.10
51613;DHT22;37694;51.748;14.326;2023-07-09T03:50:25;23.10;42.10
51613;DHT22;37694;51.748;14.326;2023-07-09T03:52:51;23.10;42.10
51613;DHT22;37694;51.748;14.326;2023-07-09T03:55:17;23.10;42.00
51613;DHT22;37694;51.748;14.326;2023-07-09T03:57:43;23.10;42.00
51613;DHT22;37694;51.748;14.326;2023-07-09T04:00:09;23.10;42.10
51613;DHT22;37694;51.748;14.326;2023-07-09T04:02:39;23.00;42.10
51613;DHT22;37694;51.748;14.326;2023-07-09T04:05:06;23.00;42.20
51613;DHT22;37694;51.748;14.326;2023-07-09T04:07:31;23.00;42.30
51613;DHT22;37694;51.748;14.326;2023-07-09T04:09:57;23.00;42.30
51613;DHT22;37694;51.748;14.326;2023-07-09T04:12:23;23.00;42.30
51613;DHT22;37694;51.748;14.326;2023-07-09T04:14:48;23.00;42.40
51613;DHT22;37694;51.748;14.326;2023-07-09T04:17:14;23.00;42.50
51613;DHT22;37694;51.748;14.326;2023-07-09T04:19:40;23.00;42.40
51613;DHT22;37694;51.748;14.326;2023-07-09T04:22:05;23.00;42.50
51613;DHT22;37694;51.748;14.326;2023-07-09T04:24:31;23.00;42.50
51613;DHT22;37694;51.748;14.326;2023-07-09T04:26:58;23.00;42.50
51613;DHT22;37694;51.748;14.326;2023-07-09T04:29:29;23.00;42.50
51613;DHT22;37694;51.748;14.326;2023-07-09T04:31:54;23.00;42.50
51613;DHT22;37694;51.748;14.326;2023-07-09T04:34:20;23.00;42.70
51613;DHT22;37694;51.748;14.326;2023-07-09T04:36:46;23.00;42.70
51613;DHT22;37694;51.748;14.326;2023-07-09T04:39:11;23.00;42.70
51613;DHT22;37694;51.748;14.326;2023-07-09T04:41:37;23.00;42.70
51613;DHT22;37694;51.748;14.326;2023-07-09T04:44:03;23.00;42.70
51613;DHT22;37694;51.748;14.326;2023-07-09T04:46:28;23.00;42.70
51613;DHT22;37694;51.748;14.326;2023-07-09T04:48:54;23.00;42.80
51613;DHT22;37694;51.748;14.326;2023-07-09T04:51:21;23.00;42.70
51613;DHT22;37694;51.748;14.326;2023-07-09T04:53:47;23.00;42.70
51613;DHT22;37694;51.748;14.326;2023-07-09T04:56:12;23.00;42.80
51613;DHT22;37694;51.748;14.326;2023-07-09T04:58:38;23.00;42.70
51613;DHT22;37694;51.748;14.326;2023-07-09T05:01:04;23.00;42.70
51613;DHT22;37694;51.748;14.326;2023-07-09T05:03:29;23.00;42.70
51613;DHT22;37694;51.748;14.326;2023-07-09T05:05:56;23.00;42.70
51613;DHT22;37694;51.748;14.326;2023-07-09T05:08:22;23.00;42.70
51613;DHT22;37694;51.748;14.326;2023-07-09T05:10:50;23.00;42.70
51613;DHT22;37694;51.748;14.326;2023-07-09T05:13:17;23.00;42.70
51613;DHT22;37694;51.748;14.326;2023-07-09T05:15:45;23.00;42.70
51613;DHT22;37694;51.748;14.326;2023-07-09T05:18:15;23.00;42.70
51613;DHT22;37694;51.748;14.326;2023-07-09T05:20:41;23.00;42.70
51613;DHT22;37694;51.748;14.326;2023-07-09T05:23:08;23.00;42.70
51613;DHT22;37694;51.748;14.326;2023-07-09T05:25:34;23.00;43.00
51613;DHT22;37694;51.748;14.326;2023-07-09T05:27:59;23.00;42.70
51613;DHT22;37694;51.748;14.326;2023-07-09T05:30:26;23.00;42.80
51613;DHT22;37694;51.748;14.326;2023-07-09T05:32:52;23.00;42.70
51613;DHT22;37694;51.748;14.326;2023-07-09T05:35:19;23.00;42.80
51613;DHT22;37694;51.748;14.326;2023-07-09T05:37:45;23.00;42.80
51613;DHT22;37694;51.748;14.326;2023-07-09T05:40:10;23.10;42.80
51613;DHT22;37694;51.748;14.326;2023-07-09T05:42:36;23.00;42.90
51613;DHT22;37694;51.748;14.326;2023-07-09T05:45:02;23.00;42.80
51613;DHT22;37694;51.748;14.326;2023-07-09T05:47:28;23.00;42.80
51613;DHT22;37694;51.748;14.326;2023-07-09T05:49:54;23.00;42.80
51613;DHT22;37694;51.748;14.326;2023-07-09T05:52:22;23.00;42.80
51613;DHT22;37694;51.748;14.326;2023-07-09T05:54:49;23.10;42.90
51613;DHT22;37694;51.748;14.326;2023-07-09T05:57:15;23.00;42.80
51613;DHT22;37694;51.748;14.326;2023-07-09T05:59:41;23.00;42.80
51613;DHT22;37694;51.748;14.326;2023-07-09T06:02:14;23.00;42.70
51613;DHT22;37694;51.748;14.326;2023-07-09T06:04:40;23.10;42.80
51613;DHT22;37694;51.748;14.326;2023-07-09T06:07:06;23.00;42.80
51613;DHT22;37694;51.748;14.326;2023-07-09T06:09:32;23.00;42.80
51613;DHT22;37694;51.748;14.326;2023-07-09T06:11:58;23.10;42.90
51613;DHT22;37694;51.748;14.326;2023-07-09T06:14:25;23.10;42.80
51613;DHT22;37694;51.748;14.326;2023-07-09T06:16:50;23.10;42.70
51613;DHT22;37694;51.748;14.326;2023-07-09T06:19:16;23.10;42.60
51613;DHT22;37694;51.748;14.326;2023-07-09T06:21:42;23.10;42.50
51613;DHT22;37694;51.748;14.326;2023-07-09T06:24:08;23.00;42.40
51613;DHT22;37694;51.748;14.326;2023-07-09T06:26:33;23.10;42.20
51613;DHT22;37694;51.748;14.326;2023-07-09T06:28:59;23.00;42.40
51613;DHT22;37694;51.748;14.326;2023-07-09T06:31:25;23.00;42.50
51613;DHT22;37694;51.748;14.326;2023-07-09T06:33:51;23.10;42.80
51613;DHT22;37694;51.748;14.326;2023-07-09T06:36:18;23.00;43.50
51613;DHT22;37694;51.748;14.326;2023-07-09T06:38:44;23.00;43.70
51613;DHT22;37694;51.748;14.326;2023-07-09T06:41:11;23.10;43.70
51613;DHT22;37694;51.748;14.326;2023-07-09T06:43:37;23.00;43.80
51613;DHT22;37694;51.748;14.326;2023-07-09T06:46:08;23.10;43.90
51613;DHT22;37694;51.748;14.326;2023-07-09T06:48:35;23.10;43.90
51613;DHT22;37694;51.748;14.326;2023-07-09T06:51:01;23.10;43.90
51613;DHT22;37694;51.748;14.326;2023-07-09T06:53:28;23.10;43.80
51613;DHT22;37694;51.748;14.326;2023-07-09T06:55:54;23.10;43.70
51613;DHT22;37694;51.748;14.326;2023-07-09T06:58:22;23.10;43.70
51613;DHT22;37694;51.748;14.326;2023-07-09T07:00:50;23.10;44.00
51613;DHT22;37694;51.748;14.326;2023-07-09T07:03:16;23.20;44.00
51613;DHT22;37694;51.748;14.326;2023-07-09T07:05:45;23.20;43.80
51613;DHT22;37694;51.748;14.326;2023-07-09T07:08:14;23.20;43.70
51613;DHT22;37694;51.748;14.326;2023-07-09T07:10:40;23.20;43.70
51613;DHT22;37694;51.748;14.326;2023-07-09T07:13:06;23.20;43.70
51613;DHT22;37694;51.748;14.326;2023-07-09T07:15:32;23.20;43.70
51613;DHT22;37694;51.748;14.326;2023-07-09T07:17:57;23.20;43.70
51613;DHT22;37694;51.748;14.326;2023-07-09T07:20:23;23.20;43.70
51613;DHT22;37694;51.748;14.326;2023-07-09T07:22:49;23.30;43.50
51613;DHT22;37694;51.748;14.326;2023-07-09T07:25:16;23.20;43.40
51613;DHT22;37694;51.748;14.326;2023-07-09T07:27:41;23.30;43.40
51613;DHT22;37694;51.748;14.326;2023-07-09T07:30:08;23.30;43.50
51613;DHT22;37694;51.748;14.326;2023-07-09T07:32:45;23.30;43.30
51613;DHT22;37694;51.748;14.326;2023-07-09T07:35:11;23.30;43.40
51613;DHT22;37694;51.748;14.326;2023-07-09T07:37:37;23.30;43.40
51613;DHT22;37694;51.748;14.326;2023-07-09T07:40:02;23.30;43.40
51613;DHT22;37694;51.748;14.326;2023-07-09T07:42:30;23.30;43.30
51613;DHT22;37694;51.748;14.326;2023-07-09T07:44:56;23.40;43.40
51613;DHT22;37694;51.748;14.326;2023-07-09T07:47:22;23.40;43.20
51613;DHT22;37694;51.748;14.326;2023-07-09T07:49:47;23.40;43.10
51613;DHT22;37694;51.748;14.326;2023-07-09T07:52:14;23.40;43.10
51613;DHT22;37694;51.748;14.326;2023-07-09T07:54:39;23.40;43.10
51613;DHT22;37694;51.748;14.326;2023-07-09T07:57:05;23.40;43.20
51613;DHT22;37694;51.748;14.326;2023-07-09T07:59:31;23.40;43.60
51613;DHT22;37694;51.748;14.326;2023-07-09T08:02:00;23.40;43.90
51613;DHT22;37694;51.748;14.326;2023-07-09T08:04:26;23.40;43.90
51613;DHT22;37694;51.748;14.326;2023-07-09T08:06:52;23.40;43.80
51613;DHT22;37694;51.748;14.326;2023-07-09T08:09:18;23.50;43.90
51613;DHT22;37694;51.748;14.326;2023-07-09T08:11:44;23.50;43.90
51613;DHT22;37694;51.748;14.326;2023-07-09T08:14:11;23.50;43.80
51613;DHT22;37694;51.748;14.326;2023-07-09T08:16:37;23.50;43.70
51613;DHT22;37694;51.748;14.326;2023-07-09T08:19:02;23.50;43.50
51613;DHT22;37694;51.748;14.326;2023-07-09T08:21:28;23.50;43.20
51613;DHT22;37694;51.748;14.326;2023-07-09T08:23:54;23.50;43.40
51613;DHT22;37694;51.748;14.326;2023-07-09T08:26:19;23.50;43.40
51613;DHT22;37694;51.748;14.326;2023-07-09T08:28:45;23.60;43.60
51613;DHT22;37694;51.748;14.326;2023-07-09T08:31:11;23.60;44.20
51613;DHT22;37694;51.748;14.326;2023-07-09T08:33:36;23.60;44.20
51613;DHT22;37694;51.748;14.326;2023-07-09T08:36:02;23.70;44.20
51613;DHT22;37694;51.748;14.326;2023-07-09T08:38:28;23.70;44.20
51613;DHT22;37694;51.748;14.326;2023-07-09T08:41:01;23.70;44.00
51613;DHT22;37694;51.748;14.326;2023-07-09T08:46:07;23.70;44.30
51613;DHT22;37694;51.748;14.326;2023-07-09T08:48:39;23.70;44.40
51613;DHT22;37694;51.748;14.326;2023-07-09T08:51:17;23.70;44.40
51613;DHT22;37694;51.748;14.326;2023-07-09T08:53:59;23.50;44.70
51613;DHT22;37694;51.748;14.326;2023-07-09T08:56:26;23.30;44.90
51613;DHT22;37694;51.748;14.326;2023-07-09T08:58:55;23.20;45.10
51613;DHT22;37694;51.748;14.326;2023-07-09T09:01:24;23.20;45.40
51613;DHT22;37694;51.748;14.326;2023-07-09T09:04:03;23.10;44.90
51613;DHT22;37694;51.748;14.326;2023-07-09T09:06:31;23.00;44.90
51613;DHT22;37694;51.748;14.326;2023-07-09T09:11:43;23.00;44.70
51613;DHT22;37694;51.748;14.326;2023-07-09T09:14:33;22.90;44.60
51613;DHT22;37694;51.748;14.326;2023-07-09T09:17:00;22.90;45.60
51613;DHT22;37694;51.748;14.326;2023-07-09T09:19:33;22.90;45.80
51613;DHT22;37694;51.748;14.326;2023-07-09T09:22:13;22.90;45.60
51613;DHT22;37694;51.748;14.326;2023-07-09T09:27:18;22.90;46.10
51613;DHT22;37694;51.748;14.326;2023-07-09T09:29:44;22.80;45.90
51613;DHT22;37694;51.748;14.326;2023-07-09T09:32:36;22.90;47.00
51613;DHT22;37694;51.748;14.326;2023-07-09T09:35:17;23.00;48.10
51613;DHT22;37694;51.748;14.326;2023-07-09T09:37:52;23.00;48.60
51613;DHT22;37694;51.748;14.326;2023-07-09T09:40:19;23.00;48.60
51613;DHT22;37694;51.748;14.326;2023-07-09T09:42:48;23.00;48.10
51613;DHT22;37694;51.748;14.326;2023-07-09T09:45:17;23.00;47.70
51613;DHT22;37694;51.748;14.326;2023-07-09T09:47:44;23.00;47.60
51613;DHT22;37694;51.748;14.326;2023-07-09T09:50:14;23.10;46.60
51613;DHT22;37694;51.748;14.326;2023-07-09T09:52:40;23.00;46.60
51613;DHT22;37694;51.748;14.326;2023-07-09T09:55:12;23.00;46.90
51613;DHT22;37694;51.748;14.326;2023-07-09T09:57:48;22.90;47.50
51613;DHT22;37694;51.748;14.326;2023-07-09T10:00:15;22.80;48.50
51613;DHT22;37694;51.748;14.326;2023-07-09T10:02:41;22.70;49.30
51613;DHT22;37694;51.748;14.326;2023-07-09T10:05:15;22.60;49.30
51613;DHT22;37694;51.748;14.326;2023-07-09T10:10:44;22.50;48.70
51613;DHT22;37694;51.748;14.326;2023-07-09T10:13:20;22.30;48.00
51613;DHT22;37694;51.748;14.326;2023-07-09T10:16:02;22.20;47.50
51613;DHT22;37694;51.748;14.326;2023-07-09T10:18:51;22.10;47.20
51613;DHT22;37694;51.748;14.326;2023-07-09T10:26:47;21.90;46.50
51613;DHT22;37694;51.748;14.326;2023-07-09T10:32:32;21.80;46.00
51613;DHT22;37694;51.748;14.326;2023-07-09T10:40:46;21.70;45.70
51613;DHT22;37694;51.748;14.326;2023-07-09T10:43:31;21.70;45.70
51613;DHT22;37694;51.748;14.326;2023-07-09T10:46:03;21.70;45.50
51613;DHT22;37694;51.748;14.326;2023-07-09T10:48:46;21.70;45.50
51613;DHT22;37694;51.748;14.326;2023-07-09T10:51:39;21.60;45.40
51613;DHT22;37694;51.748;14.326;2023-07-09T10:57:03;21.60;45.60
51613;DHT22;37694;51.748;14.326;2023-07-09T10:59:33;21.60;45.70
51613;DHT22;37694;51.748;14.326;2023-07-09T11:02:27;21.60;45.90
51613;DHT22;37694;51.748;14.326;2023-07-09T11:04:56;21.60;46.10
51613;DHT22;37694;51.748;14.326;2023-07-09T11:15:27;21.60;46.20
51613;DHT22;37694;51.748;14.326;2023-07-09T11:17:57;21.60;46.20
51613;DHT22;37694;51.748;14.326;2023-07-09T11:20:33;21.50;47.10
51613;DHT22;37694;51.748;14.326;2023-07-09T11:23:17;21.50;46.40
51613;DHT22;37694;51.748;14.326;2023-07-09T11:25:44;21.50;46.10
51613;DHT22;37694;51.748;14.326;2023-07-09T11:28:10;21.50;46.20
51613;DHT22;37694;51.748;14.326;2023-07-09T11:30:51;21.40;46.10
51613;DHT22;37694;51.748;14.326;2023-07-09T11:33:20;21.50;46.00
51613;DHT22;37694;51.748;14.326;2023-07-09T11:35:48;21.50;46.00
51613;DHT22;37694;51.748;14.326;2023-07-09T11:38:20;21.50;46.00
51613;DHT22;37694;51.748;14.326;2023-07-09T11:40:52;21.40;45.90
51613;DHT22;37694;51.748;14.326;2023-07-09T11:43:35;21.50;45.80
51613;DHT22;37694;51.748;14.326;2023-07-09T11:46:27;21.50;45.50
51613;DHT22;37694;51.748;14.326;2023-07-09T11:48:54;21.50;45.50
51613;DHT22;37694;51.748;14.326;2023-07-09T11:51:42;21.40;45.70
51613;DHT22;37694;51.748;14.326;2023-07-09T11:54:11;21.40;45.60
51613;DHT22;37694;51.748;14.326;2023-07-09T11:56:39;21.40;45.60
51613;DHT22;37694;51.748;14.326;2023-07-09T11:59:05;21.40;45.80
51613;DHT22;37694;51.748;14.326;2023-07-09T12:01:57;21.40;46.60
51613;DHT22;37694;51.748;14.326;2023-07-09T12:04:32;21.40;45.60
51613;DHT22;37694;51.748;14.326;2023-07-09T12:07:00;21.30;45.90
51613;DHT22;37694;51.748;14.326;2023-07-09T12:09:32;21.30;46.10
51613;DHT22;37694;51.748;14.326;2023-07-09T12:11:58;21.30;46.00
51613;DHT22;37694;51.748;14.326;2023-07-09T12:14:24;21.30;46.10
51613;DHT22;37694;51.748;14.326;2023-07-09T12:16:51;21.30;46.00
51613;DHT22;37694;51.748;14.326;2023-07-09T12:19:20;21.30;46.10
51613;DHT22;37694;51.748;14.326;2023-07-09T12:21:48;21.30;46.00
51613;DHT22;37694;51.748;14.326;2023-07-09T12:26:47;21.30;46.00
51613;DHT22;37694;51.748;14.326;2023-07-09T12:29:15;21.30;46.00
51613;DHT22;37694;51.748;14.326;2023-07-09T12:31:41;21.30;46.90
51613;DHT22;37694;51.748;14.326;2023-07-09T12:34:12;21.30;46.10
51613;DHT22;37694;51.748;14.326;2023-07-09T12:36:43;21.30;46.00
51613;DHT22;37694;51.748;14.326;2023-07-09T12:39:10;21.30;46.00
51613;DHT22;37694;51.748;14.326;2023-07-09T12:41:43;21.20;46.00
51613;DHT22;37694;51.748;14.326;2023-07-09T12:44:20;21.20;46.00
51613;DHT22;37694;51.748;14.326;2023-07-09T12:46:50;21.20;45.90
51613;DHT22;37694;51.748;14.326;2023-07-09T12:49:39;21.20;46.00
51613;DHT22;37694;51.748;14.326;2023-07-09T12:54:40;21.20;46.00
51613;DHT22;37694;51.748;14.326;2023-07-09T12:57:14;21.20;46.10
51613;DHT22;37694;51.748;14.326;2023-07-09T12:59:42;21.20;46.00
51613;DHT22;37694;51.748;14.326;2023-07-09T13:02:27;21.20;46.10
51613;DHT22;37694;51.748;14.326;2023-07-09T13:05:03;21.20;46.00
51613;DHT22;37694;51.748;14.326;2023-07-09T13:07:37;21.20;46.00
51613;DHT22;37694;51.748;14.326;2023-07-09T13:10:21;21.10;46.10
51613;DHT22;37694;51.748;14.326;2023-07-09T13:12:49;21.10;46.10
51613;DHT22;37694;51.748;14.326;2023-07-09T13:15:42;21.10;46.30
51613;DHT22;37694;51.748;14.326;2023-07-09T13:18:11;21.10;46.30
51613;DHT22;37694;51.748;14.326;2023-07-09T13:20:40;21.10;46.30
51613;DHT22;37694;51.748;14.326;2023-07-09T13:23:14;21.10;46.00
51613;DHT22;37694;51.748;14.326;2023-07-09T13:25:40;21.10;46.10
51613;DHT22;37694;51.748;14.326;2023-07-09T13:28:27;21.00;46.10
51613;DHT22;37694;51.748;14.326;2023-07-09T13:33:37;21.00;45.90
51613;DHT22;37694;51.748;14.326;2023-07-09T13:36:03;21.00;46.10
51613;DHT22;37694;51.748;14.326;2023-07-09T13:38:29;21.00;46.00
51613;DHT22;37694;51.748;14.326;2023-07-09T13:40:57;21.00;45.90
51613;DHT22;37694;51.748;14.326;2023-07-09T13:43:29;21.00;46.10
51613;DHT22;37694;51.748;14.326;2023-07-09T13:45:55;21.00;45.90
51613;DHT22;37694;51.748;14.326;2023-07-09T13:48:23;21.00;46.00
51613;DHT22;37694;51.748;14.326;2023-07-09T13:50:50;20.90;45.80
51613;DHT22;37694;51.748;14.326;2023-07-09T13:53:22;21.00;46.10
51613;DHT22;37694;51.748;14.326;2023-07-09T13:55:49;21.00;46.00
51613;DHT22;37694;51.748;14.326;2023-07-09T13:58:17;21.00;46.20
51613;DHT22;37694;51.748;14.326;2023-07-09T14:00:44;21.00;46.20
51613;DHT22;37694;51.748;14.326;2023-07-09T14:03:31;20.90;46.20
51613;DHT22;37694;51.748;14.326;2023-07-09T14:05:57;20.90;46.00
51613;DHT22;37694;51.748;14.326;2023-07-09T14:08:22;20.90;46.00
51613;DHT22;37694;51.748;14.326;2023-07-09T14:10:48;20.90;46.10
51613;DHT22;37694;51.748;14.326;2023-07-09T14:13:21;20.80;46.10
51613;DHT22;37694;51.748;14.326;2023-07-09T14:15:48;20.80;46.10
51613;DHT22;37694;51.748;14.326;2023-07-09T14:18:20;20.80;46.10
51613;DHT22;37694;51.748;14.326;2023-07-09T14:20:46;20.80;46.10
51613;DHT22;37694;51.748;14.326;2023-07-09T14:23:14;20.80;46.10
51613;DHT22;37694;51.748;14.326;2023-07-09T14:25:41;20.70;46.10
51613;DHT22;37694;51.748;14.326;2023-07-09T14:28:13;20.70;46.10
51613;DHT22;37694;51.748;14.326;2023-07-09T14:30:39;20.70;46.10
51613;DHT22;37694;51.748;14.326;2023-07-09T14:33:18;20.70;46.20
51613;DHT22;37694;51.748;14.326;2023-07-09T14:35:45;20.70;46.20
51613;DHT22;37694;51.748;14.326;2023-07-09T14:38:20;20.70;46.20
51613;DHT22;37694;51.748;14.326;2023-07-09T14:40:48;20.70;46.10
51613;DHT22;37694;51.748;14.326;2023-07-09T14:43:14;20.60;46.20
51613;DHT22;37694;51.748;14.326;2023-07-09T14:45:40;20.60;46.10
51613;DHT22;37694;51.748;14.326;2023-07-09T14:48:14;20.60;46.10
51613;DHT22;37694;51.748;14.326;2023-07-09T14:50:41;20.70;45.90
51613;DHT22;37694;51.748;14.326;2023-07-09T14:53:33;20.60;45.80
51613;DHT22;37694;51.748;14.326;2023-07-09T14:55:59;20.60;46.10
51613;DHT22;37694;51.748;14.326;2023-07-09T14:58:24;20.60;46.60
51613;DHT22;37694;51.748;14.326;2023-07-09T15:00:51;20.60;46.80
51613;DHT22;37694;51.748;14.326;2023-07-09T15:03:22;20.60;46.90
51613;DHT22;37694;51.748;14.326;2023-07-09T15:05:49;20.60;46.90
51613;DHT22;37694;51.748;14.326;2023-07-09T15:08:17;20.60;46.90
51613;DHT22;37694;51.748;14.326;2023-07-09T15:10:44;20.50;46.70
51613;DHT22;37694;51.748;14.326;2023-07-09T15:13:34;20.50;46.70
51613;DHT22;37694;51.748;14.326;2023-07-09T15:16:02;20.50;46.80
51613;DHT22;37694;51.748;14.326;2023-07-09T15:18:28;20.40;46.90
51613;DHT22;37694;51.748;14.326;2023-07-09T15:20:58;20.50;47.00
51613;DHT22;37694;51.748;14.326;2023-07-09T15:23:25;20.50;46.90
51613;DHT22;37694;51.748;14.326;2023-07-09T15:25:52;20.50;46.80
51613;DHT22;37694;51.748;14.326;2023-07-09T15:28:18;20.50;46.90
51613;DHT22;37694;51.748;14.326;2023-07-09T15:30:44;20.50;46.90
51613;DHT22;37694;51.748;14.326;2023-07-09T15:33:20;20.40;46.90
51613;DHT22;37694;51.748;14.326;2023-07-09T15:35:47;20.40;46.90
51613;DHT22;37694;51.748;14.326;2023-07-09T15:38:20;20.40;47.00
51613;DHT22;37694;51.748;14.326;2023-07-09T15:40:47;20.40;47.10
51613;DHT22;37694;51.748;14.326;2023-07-09T15:43:13;20.40;47.20
51613;DHT22;37694;51.748;14.326;2023-07-09T15:45:42;20.40;47.20
51613;DHT22;37694;51.748;14.326;2023-07-09T15:48:23;20.40;47.20
51613;DHT22;37694;51.748;14.326;2023-07-09T15:50:50;20.40;47.40
51613;DHT22;37694;51.748;14.326;2023-07-09T15:53:16;20.30;47.60
51613;DHT22;37694;51.748;14.326;2023-07-09T15:55:41;20.40;47.60
51613;DHT22;37694;51.748;14.326;2023-07-09T15:58:12;20.40;47.80
51613;DHT22;37694;51.748;14.326;2023-07-09T16:00:41;20.40;48.00
51613;DHT22;37694;51.748;14.326;2023-07-09T16:03:09;20.30;48.10
51613;DHT22;37694;51.748;14.326;2023-07-09T16:05:34;20.30;48.20
51613;DHT22;37694;51.748;14.326;2023-07-09T16:08:03;20.30;48.30
51613;DHT22;37694;51.748;14.326;2023-07-09T16:10:30;20.30;48.30
51613;DHT22;37694;51.748;14.326;2023-07-09T16:12:57;20.30;49.70
51613;DHT22;37694;51.748;14.326;2023-07-09T16:15:23;20.40;50.70